sensor_id;sensor_type;location;lat;lon;timestamp;P1;durP1;ratioP1;P2;durP2;ratioP2
13252;SDS011;6693;54.370;10.132;2023-03-01T00:00:21;34.78;;;14.25;;
13252;SDS011;6693;54.370;10.132;2023-03-01T00:01:25;33.22;;;13.52;;
13252;SDS011;6693;54.370;10.132;2023-03-01T00:02:26;32.35;;;13.32;;
13252;SDS011;6693;54.370;10.132;2023-03-01T00:03:30;32.15;;;14.48;;
13252;SDS011;6693;54.370;10.132;2023-03-01T00:04:30;32.53;;;14.30;;
13252;SDS011;6693;54.370;10.132;2023-03-01T00:05:35;33.90;;;14.27;;
13252;SDS011;6693;54.370;10.132;2023-03-01T00:06:36;34.10;;;15.82;;
13252;SDS011;6693;54.370;10.132;2023-03-01T00:07:39;32.08;;;14.20;;
13252;SDS011;6693;54.370;10.132;2023-03-01T00:08:42;34.42;;;15.00;;
13252;SDS011;6693;54.370;10.132;2023-03-01T00:09:46;33.50;;;14.00;;
13252;SDS011;6693;54.370;10.132;2023-03-01T00:10:46;35.72;;;14.93;;
13252;SDS011;6693;54.370;10.132;2023-03-01T00:11:49;31.42;;;13.82;;
13252;SDS011;6693;54.370;10.132;2023-03-01T00:12:50;35.20;;;15.00;;
13252;SDS011;6693;54.370;10.132;2023-03-01T00:13:54;34.40;;;14.15;;
13252;SDS011;6693;54.370;10.132;2023-03-01T00:14:55;36.28;;;15.05;;
13252;SDS011;6693;54.370;10.132;2023-03-01T00:15:58;34.30;;;13.85;;
13252;SDS011;6693;54.370;10.132;2023-03-01T00:16:59;32.03;;;14.38;;
13252;SDS011;6693;54.370;10.132;2023-03-01T00:18:02;31.73;;;13.98;;
13252;SDS011;6693;54.370;10.132;2023-03-01T00:19:03;35.55;;;14.73;;
13252;SDS011;6693;54.370;10.132;2023-03-01T00:20:07;33.47;;;14.77;;
13252;SDS011;6693;54.370;10.132;2023-03-01T00:21:10;32.35;;;14.55;;
13252;SDS011;6693;54.370;10.132;2023-03-01T00:22:14;32.78;;;14.45;;
13252;SDS011;6693;54.370;10.132;2023-03-01T00:23:14;33.50;;;13.35;;
13252;SDS011;6693;54.370;10.132;2023-03-01T00:24:20;33.28;;;13.82;;
13252;SDS011;6693;54.370;10.132;2023-03-01T00:25:23;33.65;;;14.18;;
13252;SDS011;6693;54.370;10.132;2023-03-01T00:26:24;34.47;;;14.27;;
13252;SDS011;6693;54.370;10.132;2023-03-01T00:27:28;35.25;;;15.30;;
13252;SDS011;6693;54.370;10.132;2023-03-01T00:28:29;32.70;;;14.50;;
13252;SDS011;6693;54.370;10.132;2023-03-01T00:29:32;34.45;;;14.50;;
13252;SDS011;6693;54.370;10.132;2023-03-01T00:30:32;34.33;;;15.00;;
13252;SDS011;6693;54.370;10.132;2023-03-01T00:31:35;36.03;;;15.27;;
13252;SDS011;6693;54.370;10.132;2023-03-01T00:32:39;36.60;;;15.60;;
13252;SDS011;6693;54.370;10.132;2023-03-01T00:33:40;34.25;;;14.77;;
13252;SDS011;6693;54.370;10.132;2023-03-01T00:34:43;33.35;;;14.25;;
13252;SDS011;6693;54.370;10.132;2023-03-01T00:35:54;31.65;;;14.10;;
13252;SDS011;6693;54.370;10.132;2023-03-01T00:36:57;33.10;;;13.40;;
13252;SDS011;6693;54.370;10.132;2023-03-01T00:38:05;33.55;;;14.00;;
13252;SDS011;6693;54.370;10.132;2023-03-01T00:39:09;32.05;;;14.43;;
13252;SDS011;6693;54.370;10.132;2023-03-01T00:40:14;32.58;;;13.23;;
13252;SDS011;6693;54.370;10.132;2023-03-01T00:41:18;37.35;;;14.25;;
13252;SDS011;6693;54.370;10.132;2023-03-01T00:42:19;33.83;;;14.48;;
13252;SDS011;6693;54.370;10.132;2023-03-01T00:43:23;30.65;;;13.02;;
13252;SDS011;6693;54.370;10.132;2023-03-01T00:44:23;31.13;;;14.45;;
13252;SDS011;6693;54.370;10.132;2023-03-01T00:45:28;38.95;;;13.95;;
13252;SDS011;6693;54.370;10.132;2023-03-01T00:46:29;122.80;;;18.23;;
13252;SDS011;6693;54.370;10.132;2023-03-01T00:47:33;39.22;;;14.43;;
13252;SDS011;6693;54.370;10.132;2023-03-01T00:48:34;68.45;;;15.00;;
13252;SDS011;6693;54.370;10.132;2023-03-01T00:49:38;51.25;;;14.27;;
13252;SDS011;6693;54.370;10.132;2023-03-01T00:50:39;119.47;;;15.73;;
13252;SDS011;6693;54.370;10.132;2023-03-01T00:51:42;73.57;;;14.27;;
13252;SDS011;6693;54.370;10.132;2023-03-01T00:52:45;176.52;;;18.42;;
13252;SDS011;6693;54.370;10.132;2023-03-01T00:53:47;53.90;;;14.23;;
13252;SDS011;6693;54.370;10.132;2023-03-01T00:54:51;37.55;;;14.38;;
13252;SDS011;6693;54.370;10.132;2023-03-01T00:55:55;96.32;;;16.80;;
13252;SDS011;6693;54.370;10.132;2023-03-01T00:56:59;62.50;;;14.88;;
13252;SDS011;6693;54.370;10.132;2023-03-01T00:58:02;111.28;;;16.30;;
13252;SDS011;6693;54.370;10.132;2023-03-01T00:59:03;49.55;;;14.45;;
13252;SDS011;6693;54.370;10.132;2023-03-01T01:00:07;57.55;;;15.45;;
13252;SDS011;6693;54.370;10.132;2023-03-01T01:01:09;162.75;;;19.98;;
13252;SDS011;6693;54.370;10.132;2023-03-01T01:02:17;41.03;;;14.00;;
13252;SDS011;6693;54.370;10.132;2023-03-01T01:03:18;43.50;;;13.85;;
13252;SDS011;6693;54.370;10.132;2023-03-01T01:04:21;50.20;;;14.00;;
13252;SDS011;6693;54.370;10.132;2023-03-01T01:05:22;53.92;;;13.52;;
13252;SDS011;6693;54.370;10.132;2023-03-01T01:06:26;38.78;;;13.27;;
13252;SDS011;6693;54.370;10.132;2023-03-01T01:07:28;41.05;;;14.07;;
13252;SDS011;6693;54.370;10.132;2023-03-01T01:08:31;41.38;;;13.90;;
13252;SDS011;6693;54.370;10.132;2023-03-01T01:09:32;89.68;;;15.35;;
13252;SDS011;6693;54.370;10.132;2023-03-01T01:10:35;50.58;;;13.15;;
13252;SDS011;6693;54.370;10.132;2023-03-01T01:11:38;29.75;;;13.20;;
13252;SDS011;6693;54.370;10.132;2023-03-01T01:12:42;45.42;;;13.48;;
13252;SDS011;6693;54.370;10.132;2023-03-01T01:13:43;55.22;;;14.98;;
13252;SDS011;6693;54.370;10.132;2023-03-01T01:14:47;28.65;;;12.82;;
13252;SDS011;6693;54.370;10.132;2023-03-01T01:15:48;156.10;;;17.27;;
13252;SDS011;6693;54.370;10.132;2023-03-01T01:16:51;226.52;;;20.42;;
13252;SDS011;6693;54.370;10.132;2023-03-01T01:17:52;26.70;;;12.70;;
13252;SDS011;6693;54.370;10.132;2023-03-01T01:18:55;69.68;;;13.32;;
13252;SDS011;6693;54.370;10.132;2023-03-01T01:19:56;132.02;;;14.60;;
13252;SDS011;6693;54.370;10.132;2023-03-01T01:21:03;36.38;;;12.13;;
13252;SDS011;6693;54.370;10.132;2023-03-01T01:22:04;123.15;;;16.75;;
13252;SDS011;6693;54.370;10.132;2023-03-01T01:23:07;45.92;;;13.18;;
13252;SDS011;6693;54.370;10.132;2023-03-01T01:24:08;67.38;;;13.82;;
13252;SDS011;6693;54.370;10.132;2023-03-01T01:25:12;26.52;;;12.30;;
13252;SDS011;6693;54.370;10.132;2023-03-01T01:26:13;29.42;;;13.30;;
13252;SDS011;6693;54.370;10.132;2023-03-01T01:27:20;80.47;;;14.40;;
13252;SDS011;6693;54.370;10.132;2023-03-01T01:28:20;28.60;;;11.65;;
13252;SDS011;6693;54.370;10.132;2023-03-01T01:29:24;50.17;;;12.88;;
13252;SDS011;6693;54.370;10.132;2023-03-01T01:30:24;40.40;;;12.38;;
13252;SDS011;6693;54.370;10.132;2023-03-01T01:31:27;52.42;;;14.05;;
13252;SDS011;6693;54.370;10.132;2023-03-01T01:32:28;52.63;;;12.98;;
13252;SDS011;6693;54.370;10.132;2023-03-01T01:33:32;60.70;;;14.50;;
13252;SDS011;6693;54.370;10.132;2023-03-01T01:34:32;69.95;;;15.80;;
13252;SDS011;6693;54.370;10.132;2023-03-01T01:35:35;74.35;;;16.25;;
13252;SDS011;6693;54.370;10.132;2023-03-01T01:36:36;32.85;;;13.30;;
13252;SDS011;6693;54.370;10.132;2023-03-01T01:37:39;31.10;;;14.13;;
13252;SDS011;6693;54.370;10.132;2023-03-01T01:38:41;48.25;;;14.75;;
13252;SDS011;6693;54.370;10.132;2023-03-01T01:39:46;37.88;;;14.63;;
13252;SDS011;6693;54.370;10.132;2023-03-01T01:40:47;38.92;;;13.55;;
13252;SDS011;6693;54.370;10.132;2023-03-01T01:41:51;30.88;;;13.50;;
13252;SDS011;6693;54.370;10.132;2023-03-01T01:42:54;65.93;;;14.75;;
13252;SDS011;6693;54.370;10.132;2023-03-01T01:44:11;29.77;;;13.65;;
13252;SDS011;6693;54.370;10.132;2023-03-01T01:45:27;28.42;;;12.25;;
13252;SDS011;6693;54.370;10.132;2023-03-01T01:46:33;55.72;;;14.98;;
13252;SDS011;6693;54.370;10.132;2023-03-01T01:47:36;31.17;;;13.10;;
13252;SDS011;6693;54.370;10.132;2023-03-01T01:48:40;70.57;;;16.00;;
13252;SDS011;6693;54.370;10.132;2023-03-01T01:49:44;49.50;;;13.60;;
13252;SDS011;6693;54.370;10.132;2023-03-01T01:50:51;63.33;;;14.25;;
13252;SDS011;6693;54.370;10.132;2023-03-01T01:51:59;35.15;;;12.75;;
13252;SDS011;6693;54.370;10.132;2023-03-01T01:53:07;67.35;;;13.45;;
13252;SDS011;6693;54.370;10.132;2023-03-01T01:54:11;37.03;;;11.85;;
13252;SDS011;6693;54.370;10.132;2023-03-01T01:55:17;100.63;;;13.25;;
13252;SDS011;6693;54.370;10.132;2023-03-01T01:56:21;119.55;;;15.40;;
13252;SDS011;6693;54.370;10.132;2023-03-01T01:57:27;136.63;;;16.40;;
13252;SDS011;6693;54.370;10.132;2023-03-01T01:58:32;76.80;;;15.38;;
13252;SDS011;6693;54.370;10.132;2023-03-01T01:59:35;70.80;;;15.15;;
13252;SDS011;6693;54.370;10.132;2023-03-01T02:00:37;71.88;;;14.77;;
13252;SDS011;6693;54.370;10.132;2023-03-01T02:01:41;49.75;;;14.50;;
13252;SDS011;6693;54.370;10.132;2023-03-01T02:02:43;106.75;;;15.85;;
13252;SDS011;6693;54.370;10.132;2023-03-01T02:03:47;85.80;;;15.55;;
13252;SDS011;6693;54.370;10.132;2023-03-01T02:04:49;69.97;;;14.88;;
13252;SDS011;6693;54.370;10.132;2023-03-01T02:05:57;102.93;;;15.25;;
13252;SDS011;6693;54.370;10.132;2023-03-01T02:07:01;148.35;;;18.13;;
13252;SDS011;6693;54.370;10.132;2023-03-01T02:08:06;85.55;;;13.23;;
13252;SDS011;6693;54.370;10.132;2023-03-01T02:09:10;113.75;;;13.70;;
13252;SDS011;6693;54.370;10.132;2023-03-01T02:10:15;39.67;;;12.05;;
13252;SDS011;6693;54.370;10.132;2023-03-01T02:11:16;42.63;;;12.38;;
13252;SDS011;6693;54.370;10.132;2023-03-01T02:12:21;48.45;;;12.02;;
13252;SDS011;6693;54.370;10.132;2023-03-01T02:13:23;64.43;;;12.60;;
13252;SDS011;6693;54.370;10.132;2023-03-01T02:14:29;78.82;;;12.93;;
13252;SDS011;6693;54.370;10.132;2023-03-01T02:15:31;104.18;;;13.68;;
13252;SDS011;6693;54.370;10.132;2023-03-01T02:16:36;112.07;;;13.52;;
13252;SDS011;6693;54.370;10.132;2023-03-01T02:17:36;42.17;;;10.80;;
13252;SDS011;6693;54.370;10.132;2023-03-01T02:18:40;35.00;;;11.60;;
13252;SDS011;6693;54.370;10.132;2023-03-01T02:19:44;110.72;;;13.00;;
13252;SDS011;6693;54.370;10.132;2023-03-01T02:21:00;39.13;;;10.23;;
13252;SDS011;6693;54.370;10.132;2023-03-01T02:22:11;48.92;;;10.60;;
13252;SDS011;6693;54.370;10.132;2023-03-01T02:23:19;75.90;;;12.23;;
13252;SDS011;6693;54.370;10.132;2023-03-01T02:24:21;121.45;;;13.98;;
13252;SDS011;6693;54.370;10.132;2023-03-01T02:25:37;30.90;;;9.73;;
13252;SDS011;6693;54.370;10.132;2023-03-01T02:26:41;98.60;;;12.40;;
13252;SDS011;6693;54.370;10.132;2023-03-01T02:27:49;120.18;;;13.15;;
13252;SDS011;6693;54.370;10.132;2023-03-01T02:28:57;116.35;;;12.75;;
13252;SDS011;6693;54.370;10.132;2023-03-01T02:30:01;73.82;;;9.95;;
13252;SDS011;6693;54.370;10.132;2023-03-01T02:31:01;55.80;;;10.25;;
13252;SDS011;6693;54.370;10.132;2023-03-01T02:32:19;56.08;;;10.35;;
13252;SDS011;6693;54.370;10.132;2023-03-01T02:33:24;57.42;;;10.75;;
13252;SDS011;6693;54.370;10.132;2023-03-01T02:34:25;32.00;;;10.15;;
13252;SDS011;6693;54.370;10.132;2023-03-01T02:35:29;84.35;;;11.90;;
13252;SDS011;6693;54.370;10.132;2023-03-01T02:36:34;53.95;;;10.45;;
13252;SDS011;6693;54.370;10.132;2023-03-01T02:37:38;30.67;;;9.10;;
13252;SDS011;6693;54.370;10.132;2023-03-01T02:38:39;41.53;;;10.50;;
13252;SDS011;6693;54.370;10.132;2023-03-01T02:39:44;126.38;;;12.88;;
13252;SDS011;6693;54.370;10.132;2023-03-01T02:40:47;41.40;;;10.27;;
13252;SDS011;6693;54.370;10.132;2023-03-01T02:41:52;55.83;;;10.20;;
13252;SDS011;6693;54.370;10.132;2023-03-01T02:42:53;31.60;;;9.75;;
13252;SDS011;6693;54.370;10.132;2023-03-01T02:44:00;171.18;;;16.20;;
13252;SDS011;6693;54.370;10.132;2023-03-01T02:45:01;74.72;;;11.48;;
13252;SDS011;6693;54.370;10.132;2023-03-01T02:46:05;59.10;;;10.70;;
13252;SDS011;6693;54.370;10.132;2023-03-01T02:47:07;67.28;;;13.30;;
13252;SDS011;6693;54.370;10.132;2023-03-01T02:48:10;64.78;;;11.50;;
13252;SDS011;6693;54.370;10.132;2023-03-01T02:49:21;115.18;;;12.63;;
13252;SDS011;6693;54.370;10.132;2023-03-01T02:50:37;106.88;;;11.85;;
13252;SDS011;6693;54.370;10.132;2023-03-01T02:51:56;20.27;;;8.25;;
13252;SDS011;6693;54.370;10.132;2023-03-01T02:53:08;63.50;;;10.82;;
13252;SDS011;6693;54.370;10.132;2023-03-01T02:54:12;50.75;;;9.82;;
13252;SDS011;6693;54.370;10.132;2023-03-01T02:55:20;66.20;;;10.32;;
13252;SDS011;6693;54.370;10.132;2023-03-01T02:56:21;35.10;;;8.55;;
13252;SDS011;6693;54.370;10.132;2023-03-01T02:57:24;44.10;;;9.30;;
13252;SDS011;6693;54.370;10.132;2023-03-01T02:58:27;91.40;;;10.52;;
13252;SDS011;6693;54.370;10.132;2023-03-01T02:59:33;82.25;;;10.02;;
13252;SDS011;6693;54.370;10.132;2023-03-01T03:00:39;70.30;;;10.65;;
13252;SDS011;6693;54.370;10.132;2023-03-01T03:01:45;61.15;;;10.02;;
13252;SDS011;6693;54.370;10.132;2023-03-01T03:02:46;24.25;;;8.60;;
13252;SDS011;6693;54.370;10.132;2023-03-01T03:03:50;57.15;;;10.27;;
13252;SDS011;6693;54.370;10.132;2023-03-01T03:04:51;216.40;;;17.08;;
13252;SDS011;6693;54.370;10.132;2023-03-01T03:05:54;92.10;;;10.75;;
13252;SDS011;6693;54.370;10.132;2023-03-01T03:06:54;92.50;;;10.77;;
13252;SDS011;6693;54.370;10.132;2023-03-01T03:07:58;137.30;;;14.38;;
13252;SDS011;6693;54.370;10.132;2023-03-01T03:10:03;52.72;;;9.38;;
13252;SDS011;6693;54.370;10.132;2023-03-01T03:11:05;107.10;;;11.85;;
13252;SDS011;6693;54.370;10.132;2023-03-01T03:12:08;81.18;;;10.23;;
13252;SDS011;6693;54.370;10.132;2023-03-01T03:13:11;109.72;;;11.90;;
13252;SDS011;6693;54.370;10.132;2023-03-01T03:14:16;40.58;;;9.00;;
13252;SDS011;6693;54.370;10.132;2023-03-01T03:15:20;125.75;;;12.73;;
13252;SDS011;6693;54.370;10.132;2023-03-01T03:16:23;120.30;;;11.27;;
13252;SDS011;6693;54.370;10.132;2023-03-01T03:17:24;108.72;;;11.63;;
13252;SDS011;6693;54.370;10.132;2023-03-01T03:18:27;158.63;;;13.60;;
13252;SDS011;6693;54.370;10.132;2023-03-01T03:19:28;219.75;;;16.63;;
13252;SDS011;6693;54.370;10.132;2023-03-01T03:20:32;83.18;;;10.88;;
13252;SDS011;6693;54.370;10.132;2023-03-01T03:21:33;249.07;;;18.90;;
13252;SDS011;6693;54.370;10.132;2023-03-01T03:22:37;127.28;;;13.43;;
13252;SDS011;6693;54.370;10.132;2023-03-01T03:23:38;152.13;;;13.75;;
13252;SDS011;6693;54.370;10.132;2023-03-01T03:24:41;138.20;;;13.20;;
13252;SDS011;6693;54.370;10.132;2023-03-01T03:25:42;96.60;;;12.20;;
13252;SDS011;6693;54.370;10.132;2023-03-01T03:26:45;166.15;;;13.95;;
13252;SDS011;6693;54.370;10.132;2023-03-01T03:27:47;151.93;;;14.38;;
13252;SDS011;6693;54.370;10.132;2023-03-01T03:28:56;133.75;;;12.02;;
13252;SDS011;6693;54.370;10.132;2023-03-01T03:29:57;92.38;;;11.38;;
13252;SDS011;6693;54.370;10.132;2023-03-01T03:31:03;154.25;;;13.43;;
13252;SDS011;6693;54.370;10.132;2023-03-01T03:32:05;150.27;;;12.80;;
13252;SDS011;6693;54.370;10.132;2023-03-01T03:33:09;183.02;;;14.35;;
13252;SDS011;6693;54.370;10.132;2023-03-01T03:34:10;137.50;;;13.02;;
13252;SDS011;6693;54.370;10.132;2023-03-01T03:35:18;136.98;;;12.88;;
13252;SDS011;6693;54.370;10.132;2023-03-01T03:37:23;25.95;;;7.93;;
13252;SDS011;6693;54.370;10.132;2023-03-01T03:38:39;67.35;;;11.18;;
13252;SDS011;6693;54.370;10.132;2023-03-01T03:39:42;59.20;;;9.98;;
13252;SDS011;6693;54.370;10.132;2023-03-01T03:40:43;36.38;;;8.80;;
13252;SDS011;6693;54.370;10.132;2023-03-01T03:41:48;110.63;;;12.73;;
13252;SDS011;6693;54.370;10.132;2023-03-01T03:42:48;30.30;;;8.88;;
13252;SDS011;6693;54.370;10.132;2023-03-01T03:43:51;28.70;;;8.88;;
13252;SDS011;6693;54.370;10.132;2023-03-01T03:44:55;106.80;;;11.85;;
13252;SDS011;6693;54.370;10.132;2023-03-01T03:45:55;57.10;;;11.35;;
13252;SDS011;6693;54.370;10.132;2023-03-01T03:47:02;84.03;;;11.75;;
13252;SDS011;6693;54.370;10.132;2023-03-01T03:48:03;151.05;;;12.75;;
13252;SDS011;6693;54.370;10.132;2023-03-01T03:49:07;116.13;;;11.40;;
13252;SDS011;6693;54.370;10.132;2023-03-01T03:50:08;155.23;;;13.65;;
13252;SDS011;6693;54.370;10.132;2023-03-01T03:51:13;129.10;;;12.02;;
13252;SDS011;6693;54.370;10.132;2023-03-01T03:52:15;119.05;;;12.32;;
13252;SDS011;6693;54.370;10.132;2023-03-01T03:53:18;82.38;;;9.68;;
13252;SDS011;6693;54.370;10.132;2023-03-01T03:54:19;123.72;;;12.02;;
13252;SDS011;6693;54.370;10.132;2023-03-01T03:55:22;91.03;;;11.35;;
13252;SDS011;6693;54.370;10.132;2023-03-01T03:56:28;162.23;;;15.80;;
13252;SDS011;6693;54.370;10.132;2023-03-01T03:57:31;89.35;;;11.10;;
13252;SDS011;6693;54.370;10.132;2023-03-01T03:58:31;121.47;;;11.07;;
13252;SDS011;6693;54.370;10.132;2023-03-01T03:59:35;182.80;;;14.43;;
13252;SDS011;6693;54.370;10.132;2023-03-01T04:00:36;100.20;;;12.35;;
13252;SDS011;6693;54.370;10.132;2023-03-01T04:01:40;100.90;;;11.30;;
13252;SDS011;6693;54.370;10.132;2023-03-01T04:02:44;129.35;;;12.35;;
13252;SDS011;6693;54.370;10.132;2023-03-01T04:03:48;252.50;;;17.77;;
13252;SDS011;6693;54.370;10.132;2023-03-01T04:04:48;133.77;;;12.80;;
13252;SDS011;6693;54.370;10.132;2023-03-01T04:05:52;140.75;;;14.68;;
13252;SDS011;6693;54.370;10.132;2023-03-01T04:06:53;147.68;;;14.98;;
13252;SDS011;6693;54.370;10.132;2023-03-01T04:07:56;393.38;;;25.52;;
13252;SDS011;6693;54.370;10.132;2023-03-01T04:09:06;313.00;;;23.42;;
13252;SDS011;6693;54.370;10.132;2023-03-01T04:10:11;482.88;;;27.58;;
13252;SDS011;6693;54.370;10.132;2023-03-01T04:11:12;729.08;;;46.45;;
13252;SDS011;6693;54.370;10.132;2023-03-01T04:12:31;341.08;;;22.50;;
13252;SDS011;6693;54.370;10.132;2023-03-01T04:13:34;442.40;;;25.65;;
13252;SDS011;6693;54.370;10.132;2023-03-01T04:14:37;272.73;;;17.55;;
13252;SDS011;6693;54.370;10.132;2023-03-01T04:15:38;566.40;;;30.98;;
13252;SDS011;6693;54.370;10.132;2023-03-01T04:16:43;614.67;;;33.08;;
13252;SDS011;6693;54.370;10.132;2023-03-01T04:17:46;496.90;;;28.48;;
13252;SDS011;6693;54.370;10.132;2023-03-01T04:18:49;528.97;;;28.80;;
13252;SDS011;6693;54.370;10.132;2023-03-01T04:19:50;53.72;;;10.88;;
13252;SDS011;6693;54.370;10.132;2023-03-01T04:20:53;180.93;;;15.35;;
13252;SDS011;6693;54.370;10.132;2023-03-01T04:21:55;458.20;;;27.63;;
13252;SDS011;6693;54.370;10.132;2023-03-01T04:22:58;321.13;;;19.30;;
13252;SDS011;6693;54.370;10.132;2023-03-01T04:24:08;99.60;;;11.35;;
13252;SDS011;6693;54.370;10.132;2023-03-01T04:25:12;168.13;;;15.30;;
13252;SDS011;6693;54.370;10.132;2023-03-01T04:26:14;334.13;;;20.90;;
13252;SDS011;6693;54.370;10.132;2023-03-01T04:27:17;136.23;;;14.30;;
13252;SDS011;6693;54.370;10.132;2023-03-01T04:28:18;62.97;;;11.38;;
13252;SDS011;6693;54.370;10.132;2023-03-01T04:29:21;61.85;;;9.90;;
13252;SDS011;6693;54.370;10.132;2023-03-01T04:30:22;207.20;;;15.18;;
13252;SDS011;6693;54.370;10.132;2023-03-01T04:31:25;334.20;;;21.42;;
13252;SDS011;6693;54.370;10.132;2023-03-01T04:32:26;168.77;;;15.35;;
13252;SDS011;6693;54.370;10.132;2023-03-01T04:33:31;204.15;;;15.20;;
13252;SDS011;6693;54.370;10.132;2023-03-01T04:34:32;297.98;;;20.63;;
13252;SDS011;6693;54.370;10.132;2023-03-01T04:35:36;134.40;;;13.02;;
13252;SDS011;6693;54.370;10.132;2023-03-01T04:36:37;124.78;;;12.68;;
13252;SDS011;6693;54.370;10.132;2023-03-01T04:37:40;275.13;;;18.30;;
13252;SDS011;6693;54.370;10.132;2023-03-01T04:38:42;364.52;;;22.17;;
13252;SDS011;6693;54.370;10.132;2023-03-01T04:39:48;57.30;;;9.48;;
13252;SDS011;6693;54.370;10.132;2023-03-01T04:40:49;64.03;;;11.43;;
13252;SDS011;6693;54.370;10.132;2023-03-01T04:41:52;69.15;;;9.63;;
13252;SDS011;6693;54.370;10.132;2023-03-01T04:42:52;77.72;;;12.23;;
13252;SDS011;6693;54.370;10.132;2023-03-01T04:43:56;68.95;;;9.40;;
13252;SDS011;6693;54.370;10.132;2023-03-01T04:45:00;102.47;;;11.95;;
13252;SDS011;6693;54.370;10.132;2023-03-01T04:46:01;74.68;;;10.38;;
13252;SDS011;6693;54.370;10.132;2023-03-01T04:47:06;235.57;;;18.00;;
13252;SDS011;6693;54.370;10.132;2023-03-01T04:48:06;65.72;;;10.32;;
13252;SDS011;6693;54.370;10.132;2023-03-01T04:49:12;131.35;;;13.13;;
13252;SDS011;6693;54.370;10.132;2023-03-01T04:50:14;138.45;;;13.77;;
13252;SDS011;6693;54.370;10.132;2023-03-01T04:51:20;171.25;;;14.27;;
13252;SDS011;6693;54.370;10.132;2023-03-01T04:52:21;567.13;;;31.00;;
13252;SDS011;6693;54.370;10.132;2023-03-01T04:53:25;491.42;;;26.58;;
13252;SDS011;6693;54.370;10.132;2023-03-01T04:54:26;435.05;;;25.00;;
13252;SDS011;6693;54.370;10.132;2023-03-01T04:55:29;478.52;;;26.70;;
13252;SDS011;6693;54.370;10.132;2023-03-01T04:56:29;421.00;;;23.63;;
13252;SDS011;6693;54.370;10.132;2023-03-01T04:57:33;209.90;;;15.05;;
13252;SDS011;6693;54.370;10.132;2023-03-01T04:58:34;504.17;;;28.52;;
13252;SDS011;6693;54.370;10.132;2023-03-01T04:59:37;313.98;;;19.00;;
13252;SDS011;6693;54.370;10.132;2023-03-01T05:00:38;368.50;;;22.20;;
13252;SDS011;6693;54.370;10.132;2023-03-01T05:01:41;58.00;;;9.68;;
13252;SDS011;6693;54.370;10.132;2023-03-01T05:02:42;130.93;;;13.20;;
13252;SDS011;6693;54.370;10.132;2023-03-01T05:03:47;230.25;;;16.63;;
13252;SDS011;6693;54.370;10.132;2023-03-01T05:04:53;63.10;;;9.70;;
13252;SDS011;6693;54.370;10.132;2023-03-01T05:05:58;141.00;;;12.82;;
13252;SDS011;6693;54.370;10.132;2023-03-01T05:07:02;104.80;;;11.02;;
13252;SDS011;6693;54.370;10.132;2023-03-01T05:08:04;99.82;;;11.32;;
13252;SDS011;6693;54.370;10.132;2023-03-01T05:09:08;308.13;;;20.33;;
13252;SDS011;6693;54.370;10.132;2023-03-01T05:10:11;173.32;;;13.95;;
13252;SDS011;6693;54.370;10.132;2023-03-01T05:11:11;300.55;;;18.30;;
13252;SDS011;6693;54.370;10.132;2023-03-01T05:12:15;380.23;;;23.50;;
13252;SDS011;6693;54.370;10.132;2023-03-01T05:13:16;188.88;;;15.80;;
13252;SDS011;6693;54.370;10.132;2023-03-01T05:14:22;346.65;;;20.38;;
13252;SDS011;6693;54.370;10.132;2023-03-01T05:15:23;458.40;;;28.52;;
13252;SDS011;6693;54.370;10.132;2023-03-01T05:16:26;281.25;;;18.40;;
13252;SDS011;6693;54.370;10.132;2023-03-01T05:17:27;514.30;;;28.35;;
13252;SDS011;6693;54.370;10.132;2023-03-01T05:18:31;225.00;;;16.52;;
13252;SDS011;6693;54.370;10.132;2023-03-01T05:19:35;451.85;;;24.88;;
13252;SDS011;6693;54.370;10.132;2023-03-01T05:20:38;112.30;;;12.32;;
13252;SDS011;6693;54.370;10.132;2023-03-01T05:21:42;259.10;;;16.40;;
13252;SDS011;6693;54.370;10.132;2023-03-01T05:22:58;430.83;;;24.52;;
13252;SDS011;6693;54.370;10.132;2023-03-01T05:24:05;394.02;;;23.25;;
13252;SDS011;6693;54.370;10.132;2023-03-01T05:25:11;254.10;;;15.32;;
13252;SDS011;6693;54.370;10.132;2023-03-01T05:26:14;237.18;;;16.45;;
13252;SDS011;6693;54.370;10.132;2023-03-01T05:27:15;419.88;;;24.73;;
13252;SDS011;6693;54.370;10.132;2023-03-01T05:28:22;393.42;;;23.15;;
13252;SDS011;6693;54.370;10.132;2023-03-01T05:29:26;185.35;;;14.77;;
13252;SDS011;6693;54.370;10.132;2023-03-01T05:30:27;254.05;;;18.75;;
13252;SDS011;6693;54.370;10.132;2023-03-01T05:31:30;219.30;;;16.55;;
13252;SDS011;6693;54.370;10.132;2023-03-01T05:32:31;520.80;;;27.83;;
13252;SDS011;6693;54.370;10.132;2023-03-01T05:33:35;240.90;;;18.08;;
13252;SDS011;6693;54.370;10.132;2023-03-01T05:34:35;436.55;;;25.35;;
13252;SDS011;6693;54.370;10.132;2023-03-01T05:35:42;317.23;;;20.15;;
13252;SDS011;6693;54.370;10.132;2023-03-01T05:36:43;240.23;;;15.75;;
13252;SDS011;6693;54.370;10.132;2023-03-01T05:37:47;379.48;;;21.73;;
13252;SDS011;6693;54.370;10.132;2023-03-01T05:38:49;268.58;;;18.27;;
13252;SDS011;6693;54.370;10.132;2023-03-01T05:39:52;133.55;;;12.48;;
13252;SDS011;6693;54.370;10.132;2023-03-01T05:40:53;460.10;;;25.55;;
13252;SDS011;6693;54.370;10.132;2023-03-01T05:41:56;115.80;;;11.68;;
13252;SDS011;6693;54.370;10.132;2023-03-01T05:42:58;452.25;;;26.90;;
13252;SDS011;6693;54.370;10.132;2023-03-01T05:44:01;68.90;;;9.88;;
13252;SDS011;6693;54.370;10.132;2023-03-01T05:45:05;156.63;;;12.32;;
13252;SDS011;6693;54.370;10.132;2023-03-01T05:46:09;65.68;;;10.65;;
13252;SDS011;6693;54.370;10.132;2023-03-01T05:47:13;52.33;;;10.45;;
13252;SDS011;6693;54.370;10.132;2023-03-01T05:48:14;22.35;;;7.55;;
13252;SDS011;6693;54.370;10.132;2023-03-01T05:49:19;55.55;;;9.43;;
13252;SDS011;6693;54.370;10.132;2023-03-01T05:50:20;24.05;;;7.53;;
13252;SDS011;6693;54.370;10.132;2023-03-01T05:51:27;24.17;;;6.90;;
13252;SDS011;6693;54.370;10.132;2023-03-01T05:52:31;43.15;;;7.65;;
13252;SDS011;6693;54.370;10.132;2023-03-01T05:53:31;96.60;;;9.40;;
13252;SDS011;6693;54.370;10.132;2023-03-01T05:54:34;83.85;;;9.70;;
13252;SDS011;6693;54.370;10.132;2023-03-01T05:55:35;25.55;;;6.82;;
13252;SDS011;6693;54.370;10.132;2023-03-01T05:56:39;26.85;;;6.75;;
13252;SDS011;6693;54.370;10.132;2023-03-01T05:57:39;24.83;;;7.25;;
13252;SDS011;6693;54.370;10.132;2023-03-01T05:58:43;42.58;;;7.60;;
13252;SDS011;6693;54.370;10.132;2023-03-01T05:59:46;34.35;;;7.97;;
13252;SDS011;6693;54.370;10.132;2023-03-01T06:00:47;23.35;;;6.97;;
13252;SDS011;6693;54.370;10.132;2023-03-01T06:01:51;47.75;;;8.60;;
13252;SDS011;6693;54.370;10.132;2023-03-01T06:02:52;55.22;;;8.68;;
13252;SDS011;6693;54.370;10.132;2023-03-01T06:03:56;95.63;;;9.15;;
13252;SDS011;6693;54.370;10.132;2023-03-01T06:04:56;49.60;;;7.97;;
13252;SDS011;6693;54.370;10.132;2023-03-01T06:06:00;177.02;;;13.32;;
13252;SDS011;6693;54.370;10.132;2023-03-01T06:07:03;98.22;;;10.57;;
13252;SDS011;6693;54.370;10.132;2023-03-01T06:08:08;55.67;;;8.93;;
13252;SDS011;6693;54.370;10.132;2023-03-01T06:09:10;62.28;;;8.90;;
13252;SDS011;6693;54.370;10.132;2023-03-01T06:10:14;68.20;;;9.65;;
13252;SDS011;6693;54.370;10.132;2023-03-01T06:11:15;199.25;;;15.40;;
13252;SDS011;6693;54.370;10.132;2023-03-01T06:12:18;228.20;;;14.98;;